Home > Products > Valid Products > TAF

000
FTUS41 KPHI 252100 AAA
TAFPHL
TAF AMD
KPHL 252102Z 2521/2624 25009KT P6SM FEW060 OVC250
     FM260200 30005KT P6SM BKN150
     FM260500 35006KT P6SM OVC100
     FM260900 01010KT 5SM -RA OVC050
     FM261500 02013G24KT 2SM RASN OVC007
     FM262100 36015KT 2SM -SN BR OVC007=



000
FTUS41 KPHI 252000 AAA
TAFILG
TAF AMD
KILG 252055Z 2521/2618 29007KT P6SM FEW060 OVC250
     FM252300 31005KT P6SM BKN150
     FM260800 01010KT 5SM -RA OVC050
     FM261200 02013G23KT 3SM RA BR OVC009=



000
FTUS41 KPHI 252000 AAA
TAFTTN
TAF AMD
KTTN 252010Z 2520/2618 27008KT P6SM BKN250
     FM252300 33004KT P6SM BKN200
     FM260600 36004KT P6SM OVC080
     FM261000 02012KT 6SM -RA OVC040
     FM261500 05014KT 2SM RASN BR OVC007=



000
FTUS41 KPHI 251900 AAA
TAFMIV
TAF AMD
KMIV 251924Z 2519/2618 31005KT P6SM SCT040 OVC200
     FM252000 29010KT P6SM OVC250
     FM252300 34003KT P6SM OVC150
     FM260700 36006KT 5SM -RA OVC060
     FM261100 03012G22KT 2SM RA BR OVC009=



000
FTUS41 KPHI 251700
TAFPNE
TAF
KPNE 251739Z 2518/2618 29010G17KT P6SM SCT050 OVC250
      TEMPO 2518/2519 BKN050
     FM252300 28005KT P6SM BKN150
     FM260600 35003KT P6SM OVC080
     FM260900 03012KT 5SM -RA OVC040
     FM261400 04012G20KT 2SM RASN OVC007=



000
FTUS41 KPHI 251700
TAFABE
TAF
KABE 251739Z 2518/2618 27010G17KT P6SM BKN250
     FM252300 31004KT P6SM BKN150
     FM260700 36003KT P6SM OVC080
     FM261100 03007KT 4SM -RASN OVC015
     FM261300 03012KT 1SM -SN BR OVC009
      TEMPO 2614/2618 1/4SM +SN FG OVC003=



000
FTUS41 KPHI 251700
TAFPHL
TAF
KPHL 251739Z 2518/2624 30009G16KT P6SM SCT050 OVC250
      TEMPO 2518/2519 BKN050
     FM252300 30005KT P6SM BKN150
     FM260500 35006KT P6SM OVC100
     FM260900 01010KT 5SM -RA OVC050
     FM261500 02013G24KT 2SM RASN OVC007
     FM262100 36015KT 2SM -SN BR OVC007=



000
FTUS41 KPHI 251700
TAFILG
TAF
KILG 251739Z 2518/2618 29010G17KT P6SM SCT060 OVC250
      TEMPO 2518/2519 BKN060
     FM252300 31005KT P6SM BKN150
     FM260800 01010KT 5SM -RA OVC050
     FM261200 02013G23KT 3SM RA BR OVC009=



000
FTUS41 KPHI 251700
TAFMIV
TAF
KMIV 251739Z 2518/2618 30008G16KT P6SM OVC040
     FM252000 29010KT P6SM OVC250
     FM252300 34003KT P6SM OVC150
     FM260700 36006KT 5SM -RA OVC060
     FM261100 03012G22KT 2SM RA BR OVC009=



000
FTUS41 KPHI 251700
TAFTTN
TAF
KTTN 251739Z 2518/2618 28010G17KT P6SM SCT050 OVC250
      TEMPO 2518/2519 BKN050
     FM252300 33004KT P6SM BKN150
     FM260600 36004KT P6SM OVC080
     FM261000 02012KT 6SM -RA OVC040
     FM261500 05014KT 2SM RASN BR OVC007=



000
FTUS41 KPHI 251700
TAFRDG
TAF
KRDG 251739Z 2518/2618 27010G17KT P6SM BKN250
     FM252300 31004KT P6SM BKN150
     FM260600 33003KT P6SM OVC080
     FM261000 01005KT 3SM -RASN OVC010
     FM261200 01010KT 1SM -SN BR OVC008
      TEMPO 2613/2617 1/4SM +SN FG OVC003=



000
FTUS41 KPHI 251700
TAFACY
TAF
KACY 251739Z 2518/2618 30010G16KT P6SM OVC040
     FM252100 28010KT P6SM OVC250
     FM252300 34004KT P6SM OVC150
     FM260800 02011KT 5SM -RA OVC050
     FM261300 03014G26KT 2SM RA BR OVC009=



000
FTUS41 KPHI 251600 AAA
TAFRDG
TAF AMD
KRDG 251633Z 2517/2612 27010G17KT P6SM BKN250
     FM252300 31004KT P6SM BKN150
     FM260600 33003KT P6SM OVC080
     FM261000 01005KT 3SM -RASN OVC010=



000
FTUS41 KPHI 251600 AAA
TAFRDG
TAF AMD
KRDG 251633Z 2517/2612 27010G17KT P6SM BKN250
     FM252300 31004KT P6SM BKN150
     FM260600 33003KT P6SM OVC080
     FM261000 01005KT 3SM -RASN OVC010=



000
FTUS41 KPHI 251600 AAA
TAFABE
TAF AMD
KABE 251630Z 2517/2612 27011G17KT P6SM BKN250
     FM252300 31004KT P6SM BKN150
     FM260700 36003KT P6SM OVC080
     FM261100 03007KT 4SM -RASN OVC015=



000
FTUS41 KPHI 251600 AAA
TAFTTN
TAF AMD
KTTN 251624Z 2516/2612 29009KT P6SM BKN060
     FM251800 27010G17KT P6SM OVC250
     FM252300 33004KT P6SM BKN150
     FM260600 36004KT P6SM OVC080
     FM261000 02012KT 6SM -RA OVC040=



000
FTUS41 KPHI 251600 AAA
TAFPNE
TAF AMD
KPNE 251621Z 2516/2612 29010KT P6SM BKN050
     FM251800 28010G17KT P6SM OVC250
     FM252300 28005KT P6SM BKN150
     FM260600 35003KT P6SM OVC080
     FM261000 02011KT 5SM -RA OVC040=



000
FTUS41 KPHI 251600 AAB
TAFPHL
TAF AMD
KPHL 251619Z 2516/2618 29011G17KT P6SM SCT050 OVC250
     FM252300 30005KT P6SM BKN150
     FM260500 35006KT P6SM OVC100
     FM260900 01010KT 5SM -RA OVC050
     FM261500 02013KT 2SM RASN OVC007=



000
FTUS41 KPHI 251600 AAA
TAFILG
TAF AMD
KILG 251617Z 2516/2612 32011KT P6SM BKN050
      TEMPO 2517/2519 SCT050 OVC250
     FM251900 28010G17KT P6SM OVC250
     FM252300 31005KT P6SM BKN150
     FM260800 01010KT 5SM -RA BR OVC050
     FM261100 02013KT 3SM RA BR OVC010=



000
FTUS41 KPHI 251600 AAA
TAFMIV
TAF AMD
KMIV 251613Z 2516/2612 31009KT P6SM BKN040
     FM251900 29010KT P6SM OVC250
     FM252300 34003KT P6SM OVC100
     FM260600 36006KT 5SM -RA BR OVC060
     FM261100 03010KT 3SM RA BR OVC009=



000
FTUS41 KPHI 251600 AAB
TAFACY
TAF AMD
KACY 251612Z 2516/2612 31011KT P6SM BKN040
     FM252000 28010G16KT P6SM OVC250
     FM252300 34004KT P6SM OVC150
     FM260600 36008KT 5SM -RA BR OVC050
     FM261100 02012G20KT 2SM RA BR OVC009=



000
FTUS41 KPHI 251500 AAA
TAFPHL
TAF AMD
KPHL 251509Z 2515/2618 33008KT P6SM OVC050
      TEMPO 2516/2519 SCT050
     FM251900 28011G18KT P6SM BKN250
     FM252300 30005KT P6SM SCT150
     FM260500 35006KT P6SM OVC100
     FM260900 01010KT 5SM -RA OVC050
     FM261500 02010KT 2SM RASN OVC007=



000
FTUS41 KPHI 251300 AAA
TAFACY
TAF AMD
KACY 251301Z 2513/2612 31010KT P6SM BKN250
     FM252300 34004KT P6SM OVC150
     FM260600 36008KT 5SM -RA BR OVC050=



000
FTUS41 KPHI 251100
TAFACY
TAF
KACY 251120Z 2512/2612 27010KT P6SM BKN250
     FM251500 30010KT P6SM BKN250
     FM252300 34004KT P6SM OVC150
     FM260600 36008KT 5SM -RA BR OVC050=



000
FTUS41 KPHI 251100
TAFTTN
TAF
KTTN 251120Z 2512/2612 27009KT P6SM BKN250
     FM251400 27011G20KT P6SM BKN250
     FM252300 33004KT P6SM BKN100=



000
FTUS41 KPHI 251100
TAFILG
TAF
KILG 251120Z 2512/2612 30011KT P6SM BKN250
     FM252300 31005KT P6SM BKN150
     FM260800 01010KT 5SM -RA BR OVC050=



000
FTUS41 KPHI 251100
TAFABE
TAF
KABE 251120Z 2512/2612 29011G17KT P6SM BKN250
     FM252300 31004KT P6SM BKN150=



000
FTUS41 KPHI 251100
TAFPNE
TAF
KPNE 251120Z 2512/2612 26011KT P6SM BKN250
     FM252300 28005KT P6SM BKN100=



000
FTUS41 KPHI 251100
TAFRDG
TAF
KRDG 251120Z 2512/2612 26011KT P6SM BKN250
     FM251500 28012KT P6SM BKN250
     FM252300 31004KT P6SM BKN150=



000
FTUS41 KPHI 251100
TAFPHL
TAF
KPHL 251120Z 2512/2618 23008KT P6SM BKN250
     FM251400 27011G18KT P6SM BKN250
     FM252300 30005KT P6SM BKN150
     FM260500 35006KT P6SM OVC080
     FM260900 01010KT 5SM -RA BR OVC050=



000
FTUS41 KPHI 251100
TAFMIV
TAF
KMIV 251120Z 2512/2612 27011KT P6SM BKN250
     FM251500 31010KT P6SM BKN250
     FM252300 34003KT P6SM OVC100
     FM260600 36006KT 5SM -RA BR OVC060=



000
FTUS41 KPHI 250900 AAB
TAFABE
TAF AMD
KABE 250955Z 2510/2606 29011G17KT P6SM BKN250
     FM252300 31004KT P6SM BKN150=



000
FTUS41 KPHI 250800 AAB
TAFPHL
TAF AMD
KPHL 250840Z 2509/2612 23008KT P6SM BKN250
     FM251400 27011G18KT P6SM BKN250
     FM252300 30005KT P6SM BKN150
     FM260500 35006KT P6SM OVC100=



000
FTUS41 KPHI 250800 AAB
TAFMIV
TAF AMD
KMIV 250838Z 2509/2606 27011KT P6SM BKN250
      TEMPO 2509/2512 BKN020
     FM251500 31010KT P6SM BKN250
     FM252300 34003KT P6SM OVC150=



000
FTUS41 KPHI 250700 AAA
TAFMIV
TAF AMD
KMIV 250731Z 2508/2606 27011KT P6SM BKN250
     FM251500 31010KT P6SM BKN250
     FM252300 34003KT P6SM OVC150=



000
FTUS41 KPHI 250700 AAA
TAFPNE
TAF AMD
KPNE 250730Z 2508/2606 26011KT P6SM BKN250
     FM252300 28005KT P6SM BKN150=



000
FTUS41 KPHI 250700 AAA
TAFILG
TAF AMD
KILG 250730Z 2508/2606 27011KT P6SM BKN250
     FM252300 31005KT P6SM BKN150=



000
FTUS41 KPHI 250700 AAA
TAFACY
TAF AMD
KACY 250710Z 2507/2606 22007KT P6SM BKN250
     FM250900 27011G20KT P6SM BKN250
     FM251500 30010KT P6SM BKN250
     FM252300 34004KT P6SM OVC150=



000
FTUS41 KPHI 250600 AAA
TAFPHL
TAF AMD
KPHL 250644Z 2507/2612 26011KT P6SM BKN250
     FM251400 27011G18KT P6SM BKN250
     FM252300 30005KT P6SM BKN150
     FM260500 35006KT P6SM OVC100=



000
FTUS41 KPHI 250600 AAA
TAFABE
TAF AMD
KABE 250641Z 2507/2606 26011KT P6SM BKN250
     FM252300 31004KT P6SM BKN150=



000
FTUS41 KPHI 250600 AAA
TAFRDG
TAF AMD
KRDG 250640Z 2507/2606 26011KT P6SM BKN250
     FM251500 28012KT P6SM BKN250
     FM252300 31004KT P6SM BKN150=



000
FTUS41 KPHI 250500
TAFPHL
TAF
KPHL 250520Z 2506/2612 22013G20KT P6SM BKN250
     FM250700 27011G18KT P6SM BKN250
     FM252300 30005KT P6SM BKN150
     FM260500 35006KT P6SM OVC100=



000
FTUS41 KPHI 250500
TAFABE
TAF
KABE 250520Z 2506/2606 26011G20KT P6SM BKN250
     FM252300 31004KT P6SM BKN150=



000
FTUS41 KPHI 250500
TAFACY
TAF
KACY 250520Z 2506/2606 22007KT P6SM BKN250
      TEMPO 2506/2509 4SM BR
     FM250900 27011G20KT P6SM BKN250
     FM251500 30010KT P6SM BKN250
     FM252300 34004KT P6SM OVC150=



000
FTUS41 KPHI 250500
TAFMIV
TAF
KMIV 250520Z 2506/2606 22007G17KT P6SM BKN250
     FM250800 27011G18KT P6SM BKN250
     FM251500 31010KT P6SM BKN250
     FM252300 34003KT P6SM OVC150=



000
FTUS41 KPHI 250500
TAFILG
TAF
KILG 250520Z 2506/2606 24011KT P6SM BKN250
     FM250700 27011G18KT P6SM BKN250
     FM252300 31005KT P6SM BKN150=



000
FTUS41 KPHI 250500
TAFPNE
TAF
KPNE 250520Z 2506/2606 24015G25KT P6SM BKN250
     FM250700 26011G20KT P6SM BKN250
     FM252300 28005KT P6SM BKN150=



000
FTUS41 KPHI 250500
TAFRDG
TAF
KRDG 250520Z 2506/2606 26011G20KT P6SM BKN250
     FM251500 28012KT P6SM BKN250
     FM252300 31004KT P6SM BKN150=



000
FTUS41 KPHI 250500
TAFTTN
TAF
KTTN 250520Z 2506/2606 23010G20KT P6SM BKN250
     FM250700 27011G20KT P6SM BKN250
     FM252300 33004KT P6SM BKN150=



000
FTUS41 KPHI 250400 AAA
TAFACY
TAF AMD
KACY 250421Z 2504/2524 23007KT P6SM BKN200
     FM250900 28005KT P6SM SCT250
     FM251500 30010KT P6SM BKN250
     FM252300 32004KT P6SM OVC200=



000
FTUS41 KPHI 250400 AAA
TAFMIV
TAF AMD
KMIV 250420Z 2504/2524 24007KT P6SM SKC
     FM250800 27005KT P6SM SCT250
     FM251500 31010KT P6SM BKN250
     FM252300 32003KT P6SM OVC200=



000
FTUS41 KPHI 242300
TAFACY
TAF
KACY 242320Z 2500/2524 18010KT P6SM SCT100
     FM250400 21005KT P6SM SCT040 BKN100
      TEMPO 2505/2509 BKN012
     FM250900 28005KT P6SM SCT250
     FM251500 30010KT P6SM BKN250
     FM252300 32004KT P6SM OVC200=



000
FTUS41 KPHI 242300
TAFABE
TAF
KABE 242320Z 2500/2524 21010KT P6SM SKC
     FM250500 27007KT P6SM FEW250
     FM251500 28010KT P6SM SCT250
     FM252300 27004KT P6SM BKN250=



000
FTUS41 KPHI 242300
TAFPNE
TAF
KPNE 242320Z 2500/2524 21010G18KT P6SM SKC
     FM250600 26007KT P6SM FEW250
     FM251500 29010KT P6SM SCT250
     FM252300 28005KT P6SM BKN250=



000
FTUS41 KPHI 242300
TAFILG
TAF
KILG 242320Z 2500/2524 21010G18KT P6SM FEW100
     FM250600 27008KT P6SM SCT100
     FM251500 29010KT P6SM SCT250
     FM252300 29005KT P6SM BKN250=



000
FTUS41 KPHI 242300
TAFMIV
TAF
KMIV 242320Z 2500/2524 21003KT P6SM FEW100
     FM250400 VRB02KT 5SM BR SKC
      TEMPO 2505/2508 BKN015
     FM250800 27005KT P6SM SCT250
     FM251500 31010KT P6SM BKN250
     FM252300 32003KT P6SM OVC200=



000
FTUS41 KPHI 242300
TAFPHL
TAF
KPHL 242320Z 2500/2606 21010G18KT P6SM FEW100
     FM250600 27008KT P6SM SCT100
     FM251500 29010KT P6SM SCT250
     FM252300 29005KT P6SM BKN250
     FM260400 35006KT P6SM OVC100=



000
FTUS41 KPHI 242300
TAFRDG
TAF
KRDG 242320Z 2500/2524 20012KT P6SM SKC
     FM250500 27007KT P6SM FEW250
     FM251500 28012KT P6SM SCT250
     FM252300 27004KT P6SM BKN250=



000
FTUS41 KPHI 242300
TAFTTN
TAF
KTTN 242320Z 2500/2524 21012KT P6SM SKC
     FM250600 27007KT P6SM FEW250
     FM251500 30010KT P6SM SCT250
     FM252300 31004KT P6SM BKN250=



000
FTUS41 KPHI 242200 AAB
TAFRDG
TAF AMD
KRDG 242251Z 2423/2518 18010G18KT P6SM SCT100
     FM250000 21008KT P6SM BKN100
     FM250600 28007KT P6SM SCT025 BKN050
     FM251500 28010G20KT P6SM BKN200=



000
FTUS41 KPHI 242200 AAC
TAFABE
TAF AMD
KABE 242251Z 2423/2518 20012G20KT P6SM FEW035
     FM250000 22009KT P6SM SCT100
     FM250600 27007KT P6SM SCT025 BKN050
     FM251500 27010G20KT P6SM BKN200=



000
FTUS41 KPHI 242200 AAD
TAFPHL
TAF AMD
KPHL 242228Z 2422/2524 21012KT P6SM SCT035
     FM250000 22010KT P6SM SCT100
      TEMPO 2504/2508 BKN025
     FM250800 28007KT P6SM SCT025 BKN050
     FM251500 28011G20KT P6SM BKN200=



000
FTUS41 KPHI 242200 AAC
TAFMIV
TAF AMD
KMIV 242212Z 2422/2518 20007KT P6SM SCT100
     FM250300 23005KT P6SM BKN100
      TEMPO 2505/2509 BKN015
     FM250900 20007KT P6SM SCT025 BKN050
     FM251500 31010G20KT P6SM BKN200=



000
FTUS41 KPHI 242100 AAB
TAFMIV
TAF AMD
KMIV 242135Z 2422/2518 20012G20KT P6SM SCT100
     FM250000 23008KT P6SM BKN100
      TEMPO 2505/2509 BKN015
     FM250900 20007KT P6SM SCT025 BKN050
     FM251500 31010G20KT P6SM BKN200=



000
FTUS41 KPHI 242100 AAB
TAFMIV
TAF AMD
KMIV 242135Z 2422/2518 20012G20KT P6SM SCT100
     FM250000 23008KT P6SM BKN100
      TEMPO 2505/2509 BKN015
     FM250900 20007KT P6SM SCT025 BKN050
     FM251500 31010G20KT P6SM BKN200=



000
FTUS41 KPHI 242100 AAB
TAFABE
TAF AMD
KABE 242129Z 2421/2518 20014KT P6SM SCT035
     FM250000 22009KT P6SM BKN100
     FM250600 27007KT P6SM SCT025 BKN050
     FM251500 27010G20KT P6SM BKN200=



000
FTUS41 KPHI 242100 AAB
TAFABE
TAF AMD
KABE 242129Z 2421/2518 20014KT P6SM SCT035
     FM250000 22009KT P6SM BKN100
     FM250600 27007KT P6SM SCT025 BKN050
     FM251500 27010G20KT P6SM BKN200=



000
FTUS41 KPHI 242100 AAC
TAFPHL
TAF AMD
KPHL 242109Z 2421/2524 21018G28KT P6SM SCT035
     FM250000 22010KT P6SM BKN100
      TEMPO 2504/2508 BKN025
     FM250800 28007KT P6SM SCT025 BKN050
     FM251500 28011G20KT P6SM BKN200=



000
FTUS41 KPHI 242000 AAB
TAFPHL
TAF AMD
KPHL 242050Z 2421/2524 21018G28KT P6SM SCT035
     FM242200 21012G20KT P6SM SCT035
     FM250000 22009KT P6SM BKN060
      TEMPO 2504/2508 BKN025
     FM250800 28007KT P6SM SCT025 BKN050
     FM251500 28011G20KT P6SM BKN200=



000
FTUS41 KPHI 241900 AAA
TAFABE
TAF AMD
KABE 241905Z 2419/2518 19018G28KT P6SM SCT030 BKN035
     FM242200 21012G20KT P6SM SCT030 BKN040
     FM250000 22009KT P6SM BKN060
     FM250600 27007KT P6SM SCT025 BKN050
     FM251500 27010G20KT P6SM BKN200=



000
FTUS41 KPHI 241900 AAA
TAFRDG
TAF AMD
KRDG 241905Z 2419/2518 19018G28KT P6SM SCT030 BKN035
     FM242200 21012G20KT P6SM SCT030 BKN040
     FM250000 21009KT P6SM BKN060
     FM250600 28007KT P6SM SCT025 BKN050
     FM251500 28010G20KT P6SM BKN200=



000
FTUS41 KPHI 241900 AAA
TAFACY
TAF AMD
KACY 241902Z 2419/2518 18010KT P6SM SCT025 SCT035
     FM242000 20016G26KT P6SM SCT025 SCT035
     FM242200 20015G22KT P6SM SCT025 SCT035
     FM250000 22008KT P6SM SCT020 BKN040
      TEMPO 2506/2510 BKN010
     FM251000 29007KT P6SM SCT025 BKN050
     FM251500 31010G20KT P6SM BKN200=



000
FTUS41 KPHI 241900 AAA
TAFMIV
TAF AMD
KMIV 241902Z 2419/2518 21012G20KT P6SM SCT028 SCT035
     FM242000 21016G28KT P6SM SCT025 SCT040
     FM242200 21015G22KT P6SM SCT025 SCT050
     FM250000 23008KT P6SM BKN060
      TEMPO 2505/2509 BKN015
     FM250900 20007KT P6SM SCT025 BKN050
     FM251500 31010G20KT P6SM BKN200=



000
FTUS41 KPHI 241900 AAA
TAFPNE
TAF AMD
KPNE 241902Z 2419/2518 22018G28KT P6SM SCT025 BKN035
     FM242200 22012G20KT P6SM SCT025 BKN040
     FM250000 22009KT P6SM BKN060
      TEMPO 2504/2508 BKN025
     FM250800 30005KT P6SM SCT025 BKN050
     FM251500 28010G20KT P6SM BKN200=



000
FTUS41 KPHI 241800 AAA
TAFILG
TAF AMD
KILG 241856Z 2419/2518 21018G28KT P6SM SCT025 BKN035
     FM242200 21012G20KT P6SM SCT025 BKN040
     FM250000 22009KT P6SM BKN060
      TEMPO 2504/2508 BKN025
     FM250800 28007KT P6SM SCT025 BKN050
     FM251500 29010G20KT P6SM BKN200=



000
FTUS41 KPHI 241800 AAA
TAFPHL
TAF AMD
KPHL 241856Z 2419/2524 21018G30KT P6SM SCT025 BKN035
     FM242200 21012G20KT P6SM SCT025 BKN040
     FM250000 22009KT P6SM BKN060
      TEMPO 2504/2508 BKN025
     FM250800 28007KT P6SM SCT025 BKN050
     FM251500 28011G20KT P6SM BKN200=



000
FTUS41 KPHI 241700
TAFACY
TAF
KACY 241734Z 2418/2518 18010KT P6SM BKN025 OVC035
      TEMPO 2418/2419 SCT025 BKN035
     FM242000 20016G26KT P6SM SCT025 BKN035
     FM242200 20015G22KT P6SM SCT025 BKN035
     FM250000 22008KT P6SM SCT020 BKN040
      TEMPO 2506/2510 BKN010
     FM251000 29007KT P6SM SCT025 BKN050
     FM251500 31010G20KT P6SM BKN200=



000
FTUS41 KPHI 241700
TAFPHL
TAF
KPHL 241734Z 2418/2524 21018G26KT P6SM BKN025 BKN035
     FM242000 21018G30KT P6SM SCT025 BKN040
     FM242200 21012G20KT P6SM SCT025 BKN050
     FM250000 22009KT P6SM BKN060
      TEMPO 2504/2508 BKN025
     FM250800 28007KT P6SM SCT025 BKN050
     FM251500 28011G20KT P6SM BKN200=



000
FTUS41 KPHI 241700
TAFABE
TAF
KABE 241734Z 2418/2518 21015G22KT P6SM SCT028 BKN035
      TEMPO 2418/2420 BKN028 BKN035
     FM242000 20018G30KT P6SM SCT025 BKN040
     FM242200 21012G20KT P6SM SCT025 BKN050
     FM250000 22009KT P6SM BKN060
     FM250600 27007KT P6SM SCT025 BKN050
     FM251500 27010G20KT P6SM BKN200=



000
FTUS41 KPHI 241700
TAFTTN
TAF
KTTN 241734Z 2418/2518 22016G26KT P6SM SCT025 BKN035
      TEMPO 2418/2420 BKN025 BKN035
     FM242000 23018G30KT P6SM SCT025 BKN040
     FM242200 23012G20KT P6SM SCT025 BKN050
     FM250000 23009KT P6SM BKN060
      TEMPO 2504/2508 BKN025
     FM250800 29005KT P6SM SCT025 BKN050
     FM251500 30010G20KT P6SM BKN200=



000
FTUS41 KPHI 241700
TAFMIV
TAF
KMIV 241734Z 2418/2518 21012G20KT P6SM BKN028 BKN035
      TEMPO 2418/2420 SCT028 BKN035
     FM242000 21016G28KT P6SM SCT025 BKN040
     FM242200 21015G22KT P6SM SCT025 BKN050
     FM250000 23008KT P6SM BKN060
      TEMPO 2505/2509 BKN015
     FM250900 20007KT P6SM SCT025 BKN050
     FM251500 31010G20KT P6SM BKN200=



000
FTUS41 KPHI 241700
TAFRDG
TAF
KRDG 241734Z 2418/2518 21015G23KT P6SM SCT022 BKN035
      TEMPO 2418/2420 BKN022 BKN035
     FM242000 20018G30KT P6SM SCT025 BKN040
     FM242200 21012G20KT P6SM SCT025 BKN050
     FM250000 21009KT P6SM BKN060
     FM250600 28007KT P6SM SCT025 BKN050
     FM251500 28010G20KT P6SM BKN200=



000
FTUS41 KPHI 241700
TAFILG
TAF
KILG 241734Z 2418/2518 21018G28KT P6SM BKN025 BKN035
     FM242000 21018G30KT P6SM SCT025 BKN040
     FM242200 21012G20KT P6SM SCT025 BKN050
     FM250000 22009KT P6SM BKN060
      TEMPO 2504/2508 BKN025
     FM250800 28007KT P6SM SCT025 BKN050
     FM251500 29010G20KT P6SM BKN200=



000
FTUS41 KPHI 241700
TAFPNE
TAF
KPNE 241734Z 2418/2518 22018G25KT P6SM SCT025 BKN035
      TEMPO 2418/2420 BKN028 BKN035
     FM242000 22018G30KT P6SM SCT025 BKN040
     FM242200 22012G20KT P6SM SCT025 BKN050
     FM250000 22009KT P6SM BKN060
      TEMPO 2504/2508 BKN025
     FM250800 30005KT P6SM SCT025 BKN050
     FM251500 28010G20KT P6SM BKN200=



000
FTUS41 KPHI 241500 AAA
TAFRDG
TAF AMD
KRDG 241524Z 2415/2512 20012G22KT P6SM SCT015 OVC020
     FM242000 20014G26KT P6SM SCT025 BKN050
     FM250000 23007KT P6SM BKN250=



000
FTUS41 KPHI 241400 AAA
TAFABE
TAF AMD
KABE 241426Z 2414/2512 18010G20KT P6SM OVC025
     FM241800 21012G26KT P6SM SCT025 OVC035
     FM242000 20016G20KT P6SM SCT020 BKN050
     FM250000 22007KT P6SM BKN100=



000
FTUS41 KPHI 241400 AAA
TAFILG
TAF AMD
KILG 241426Z 2414/2512 21012G22KT P6SM SCT018 OVC025
     FM241800 21016G28KT P6SM SCT025 OVC050
     FM242100 21015G20KT P6SM SCT020 OVC050
     FM250000 22009KT P6SM OVC050=



000
FTUS41 KPHI 241400 AAA
TAFPHL
TAF AMD
KPHL 241426Z 2414/2518 20012KT P6SM SCT012 OVC025 WS020/20045KT
     FM241600 21014G22KT P6SM SCT015 OVC025
     FM241800 21016G28KT P6SM SCT025 OVC050
     FM242100 21012G20KT P6SM SCT025 BKN050
     FM250000 22009KT P6SM OVC050=



000
FTUS41 KPHI 241400 AAA
TAFPNE
TAF AMD
KPNE 241426Z 2414/2512 20012G20KT P6SM BKN018 OVC025
     FM241800 20016G28KT P6SM OVC025
     FM242100 21012G20KT P6SM SCT025 BKN050
     FM250000 22009KT P6SM OVC050
     FM250600 26005KT P6SM BKN250=



000
FTUS41 KPHI 241400 AAA
TAFTTN
TAF AMD
KTTN 241426Z 2414/2512 20014G26KT P6SM BKN016 OVC025
     FM241800 20016G28KT P6SM OVC025
     FM242100 21012G20KT P6SM SCT020 BKN050
     FM250000 22009KT P6SM OVC050
     FM250600 26005KT P6SM BKN250=



000
FTUS41 KPHI 241400 AAA
TAFACY
TAF AMD
KACY 241426Z 2414/2512 19012G20KT 6SM BR OVC004
     FM241600 20014G24KT P6SM BKN008 OVC015
     FM241800 20016G28KT P6SM OVC020
     FM242100 20015G22KT P6SM OVC050
     FM250000 23008KT P6SM OVC050=



000
FTUS41 KPHI 241300 AAA
TAFMIV
TAF AMD
KMIV 241316Z 2413/2512 20010KT P6SM SCT018 BKN050 WS020/20055KT
      TEMPO 2413/2417 BKN018 OVC050
     FM241700 20016G28KT P6SM OVC020
     FM242100 20015G22KT P6SM OVC050
     FM250000 23008KT P6SM OVC050=



000
FTUS41 KPHI 241100 CCA
TAFPHL
TAF COR
KPHL 241157Z 2412/2518 18018G25KT P6SM SCT010 OVC035 WS020/20055KT
      TEMPO 2412/2415 OVC011
     FM241500 21014G24KT P6SM SCT008 OVC025
     FM241700 21016G28KT P6SM OVC030
     FM242000 21015G24KT P6SM SCT020 OVC050
     FM250000 22009KT P6SM OVC050=



000
FTUS41 KPHI 241100 CCA
TAFABE
TAF COR
KABE 241147Z 2412/2512 18010G20KT P6SM SCT015 OVC035 WS020/20045KT
      TEMPO 2412/2414 OVC015
     FM241600 21012G25KT P6SM SCT008 OVC030
     FM241800 20016G26KT P6SM SCT020 BKN050
     FM250000 22007KT P6SM BKN100=



000
FTUS41 KPHI 241100
TAFPNE
TAF
KPNE 241140Z 2412/2512 20010G25KT P6SM OVC010 WS020/18055KT
     FM241500 20014G24KT P6SM SCT008 OVC015
     FM241800 20016G28KT P6SM OVC020
     FM242100 21012G20KT P6SM SCT020 BKN050
     FM250000 22009KT P6SM OVC050
     FM250600 26005KT P6SM BKN250=



000
FTUS41 KPHI 241100
TAFRDG
TAF
KRDG 241140Z 2412/2512 19012G25KT P6SM SCT008 OVC015 WS020/20045KT
     FM241300 20012G22KT P6SM SCT008 OVC015
     FM241800 20014G24KT P6SM SCT020 BKN050
     FM250000 23007KT P6SM BKN250=



000
FTUS41 KPHI 241100
TAFPHL
TAF
KPHL 241140Z 2412/2518 18018G25KT P6SM SCT010 OVC035 WS020/20055KT
      TEMPO 2412/2415 OVC025
     FM241500 21014G24KT P6SM SCT008 OVC025
     FM241700 21016G28KT P6SM OVC030
     FM242000 21015G24KT P6SM SCT020 OVC050
     FM250000 22009KT P6SM OVC050=



000
FTUS41 KPHI 241100
TAFACY
TAF
KACY 241140Z 2412/2512 18012G25KT 5SM BR SCT004 OVC015
      WS020/20055KT
      TEMPO 2412/2414 2SM -RA BR OVC004
     FM241400 20014G24KT P6SM BKN006
     FM241700 20016G28KT P6SM OVC020
     FM242100 20015G22KT P6SM OVC050
     FM250000 23008KT P6SM OVC050=



000
FTUS41 KPHI 241100
TAFILG
TAF
KILG 241140Z 2412/2512 18012G20KT P6SM SCT010 OVC020 WS020/20055KT
      TEMPO 2412/2415 BKN010
     FM241700 21016G28KT P6SM OVC030
     FM242000 21015G24KT P6SM SCT020 OVC050
     FM250000 22009KT P6SM OVC050=



000
FTUS41 KPHI 241100
TAFABE
TAF
KABE 241140Z 2412/2512 18010G20KT P6SM SCT015 OVC025 WS020/20045KT
      TEMPO 2412/2413 OVC015
     FM241600 21012G25KT P6SM SCT008 OVC030
     FM241800 20016G26KT P6SM SCT020 BKN050
     FM250000 22007KT P6SM BKN100=



000
FTUS41 KPHI 241100
TAFMIV
TAF
KMIV 241140Z 2412/2512 17013G25KT P6SM OVC003 WS020/20055KT
     FM241400 20014G24KT P6SM OVC008
     FM241700 20016G28KT P6SM OVC020
     FM242100 20015G22KT P6SM OVC050
     FM250000 23008KT P6SM OVC050=



000
FTUS41 KPHI 241100
TAFTTN
TAF
KTTN 241140Z 2412/2512 19015G25KT P6SM SCT010 OVC014 WS020/18055KT
      TEMPO 2412/2415 OVC010
     FM241500 20014G24KT P6SM SCT008 OVC015
     FM241800 20016G28KT P6SM OVC020
     FM242100 21012G20KT P6SM SCT020 BKN050
     FM250000 22009KT P6SM OVC050
     FM250600 26005KT P6SM BKN250=



000
FTUS41 KPHI 241000 AAC
TAFACY
TAF AMD
KACY 241059Z 2411/2506 18012G25KT 5SM BR SCT004 OVC015
      WS020/20055KT
      TEMPO 2411/2413 3SM RA BR OVC004
     FM241400 20014G24KT P6SM SCT008 OVC025
     FM241700 20016G28KT P6SM SCT020 BKN050
     FM250000 23008KT P6SM OVC050=



000
FTUS41 KPHI 241000 AAD
TAFTTN
TAF AMD
KTTN 241059Z 2411/2506 19015G25KT P6SM SCT007 OVC014 WS020/18055KT
      TEMPO 2411/2413 5SM -RA BR OVC007
     FM241500 20014G24KT P6SM SCT008 OVC015
     FM241900 22016G26KT P6SM SCT020 BKN050
     FM250000 22009KT P6SM OVC050=



000
FTUS41 KPHI 241000 AAC
TAFABE
TAF AMD
KABE 241057Z 2411/2506 18010G20KT P6SM SCT015 OVC025 WS020/20045KT
      TEMPO 2411/2413 OVC015
     FM241600 21012G25KT P6SM SCT008 OVC030
     FM241800 20016G26KT P6SM SCT020 BKN050
     FM250000 22007KT P6SM BKN250=



000
FTUS41 KPHI 241000 AAD
TAFILG
TAF AMD
KILG 241055Z 2411/2506 18012G20KT P6SM SCT010 OVC020 WS020/20055KT
      TEMPO 2411/2413 3SM BR OVC010
     FM241400 20014G24KT P6SM SCT008 OVC025
     FM241700 20016G28KT P6SM SCT020 BKN050
     FM250000 23008KT P6SM OVC050=



000
FTUS41 KPHI 241000 AAB
TAFRDG
TAF AMD
KRDG 241047Z 2411/2506 19012G25KT P6SM SCT008 OVC015 WS020/20045KT
     FM241300 20012G22KT P6SM SCT008 OVC015
     FM241700 20014G24KT P6SM SCT020 BKN050
     FM250000 23007KT P6SM BKN250=



000
FTUS41 KPHI 241000 AAD
TAFPHL
TAF AMD
KPHL 241046Z 2411/2512 18018G25KT P6SM SCT008 OVC015 WS020/20055KT
      TEMPO 2411/2413 OVC008
     FM241500 21014G24KT P6SM SCT008 OVC015
     FM241700 21016G28KT P6SM SCT020 BKN050
     FM250000 22009KT P6SM OVC050=



000
FTUS41 KPHI 241000 AAC
TAFILG
TAF AMD
KILG 241001Z 2410/2506 18015G25KT P6SM OVC007 WS020/20055KT
      TEMPO 2410/2412 3SM BR OVC002
     FM241200 17013G22KT P6SM OVC004 WS020/20055KT
     FM241400 20014G24KT P6SM SCT008 OVC025
     FM241700 20016G28KT P6SM SCT020 BKN050
     FM250000 23008KT P6SM OVC050=



000
FTUS41 KPHI 241000 AAB
TAFMIV
TAF AMD
KMIV 241000Z 2410/2506 18012G25KT P6SM SCT009 OVC015 WS020/20055KT
      TEMPO 2410/2411 5SM -RA BR OVC005
     FM241100 17013G25KT P6SM OVC005 WS020/20055KT
     FM241400 20014G24KT P6SM SCT008 OVC025
     FM241700 20016G28KT P6SM SCT020 BKN050
     FM250000 23008KT P6SM OVC050=



000
FTUS41 KPHI 240900 AAB
TAFABE
TAF AMD
KABE 240958Z 2410/2506 18015G25KT P6SM OVC015 WS020/20045KT
      TEMPO 2410/2412 3SM -RA BR
     FM241600 21012G25KT P6SM SCT008 OVC020
     FM241800 20016G26KT P6SM SCT020 BKN050
     FM250000 22007KT P6SM BKN250=



000
FTUS41 KPHI 240900 AAC
TAFTTN
TAF AMD
KTTN 240904Z 2409/2506 16015G30KT P6SM SCT008 OVC014 WS020/18055KT
      TEMPO 2409/2411 5SM -RA BR OVC008
     FM241500 20014G24KT P6SM SCT008 OVC015
     FM241900 22016G26KT P6SM SCT020 BKN050
     FM250000 22009KT P6SM OVC050=



000
FTUS41 KPHI 240900 AAC
TAFPNE
TAF AMD
KPNE 240903Z 2409/2506 16010G25KT P6SM OVC015 WS020/18055KT
      TEMPO 2409/2410 5SM -RA BR
     FM241500 20014G24KT P6SM SCT008 OVC015
     FM241800 20016G28KT P6SM SCT020 BKN050
     FM250000 22009KT P6SM OVC050=



000
FTUS41 KPHI 240900 AAC
TAFPHL
TAF AMD
KPHL 240901Z 2409/2512 16015G30KT P6SM SCT008 OVC015 WS020/18055KT
      TEMPO 2409/2410 5SM -SHRA BR
     FM241100 17014G24KT 4SM BR OVC005 WS020/20055KT
     FM241500 21014G24KT P6SM SCT008 OVC015
     FM241700 21016G28KT P6SM SCT020 BKN050
     FM250000 22009KT P6SM OVC050=



000
FTUS41 KPHI 240800 AAB
TAFACY
TAF AMD
KACY 240858Z 2409/2506 16012G25KT 5SM -RA BR SCT007 OVC015
      WS020/20055KT
      TEMPO 2409/2411 2SM RA BR OVC006
     FM241100 17013KT 4SM BR OVC005 WS020/20055KT
     FM241400 20014G24KT P6SM -SHRA SCT008 OVC025
     FM241700 20016G28KT P6SM SCT020 BKN050
     FM250000 23008KT P6SM OVC050=



000
FTUS41 KPHI 240800 AAA
TAFACY
TAF AMD
KACY 240807Z 2408/2506 16012G25KT 5SM -RA BR SCT007 OVC015
      WS020/20055KT
      TEMPO 2408/2411 2SM RA BR OVC007
     FM241100 17013KT 4SM BR OVC005 WS020/20055KT
     FM241400 20014G24KT P6SM -SHRA SCT008 OVC025
     FM241700 20016G28KT P6SM SCT020 BKN050
     FM250000 23008KT P6SM OVC050=



000
FTUS41 KPHI 240800 AAA
TAFMIV
TAF AMD
KMIV 240806Z 2408/2506 16012G25KT P6SM -RA SCT009 OVC015
      WS020/20055KT
      TEMPO 2408/2411 2SM -RA BR OVC009
     FM241100 17013KT 4SM BR OVC005 WS020/20055KT
     FM241400 20014G24KT P6SM -SHRA SCT008 OVC025
     FM241700 20016G28KT P6SM SCT020 BKN050
     FM250000 23008KT P6SM OVC050=



000
FTUS41 KPHI 240800 AAB
TAFPHL
TAF AMD
KPHL 240805Z 2408/2512 16012G22KT 5SM -RA BR SCT008 OVC015
      WS020/18055KT
      TEMPO 2408/2410 2SM RA BR OVC009
     FM241100 17014G24KT 4SM BR OVC005 WS020/20055KT
     FM241500 21014G24KT P6SM SCT008 OVC015
     FM241700 21016G28KT P6SM SCT020 BKN050
     FM250000 22009KT P6SM OVC050=



000
FTUS41 KPHI 240800 AAB
TAFPNE
TAF AMD
KPNE 240803Z 2408/2506 15010G20KT 5SM -RA BR OVC008 WS020/18055KT
      TEMPO 2408/2410 2SM RA BR OVC005
     FM241100 16012G20KT 4SM BR OVC005 WS020/20055KT
     FM241500 20014G24KT P6SM SCT008 OVC015
     FM241800 20016G28KT P6SM SCT020 BKN050
     FM250000 22009KT P6SM OVC050=



000
FTUS41 KPHI 240800 AAB
TAFTTN
TAF AMD
KTTN 240802Z 2408/2506 16015G25KT 5SM -RA BR SCT008 OVC014
      WS020/18055KT
      TEMPO 2408/2411 2SM RA BR OVC005
     FM241100 16012G20KT 4SM BR OVC005 WS020/20055KT
     FM241500 20014G24KT P6SM -SHRA SCT008 OVC015
     FM241900 22016G26KT P6SM SCT020 BKN050
     FM250000 22009KT P6SM OVC050=



000
FTUS41 KPHI 240800 AAA
TAFRDG
TAF AMD
KRDG 240800Z 2408/2506 14012G20KT P6SM -RA SCT008 OVC025
      WS020/20045KT
      TEMPO 2408/2410 3SM -RA BR BKN015
     FM241300 20012G22KT P6SM -SHRA SCT008 OVC015
     FM241700 20014G24KT P6SM SCT020 BKN050
     FM250000 23007KT P6SM BKN250=



000
FTUS41 KPHI 240700 AAB
TAFILG
TAF AMD
KILG 240758Z 2408/2506 15020G30KT P6SM OVC007 WS020/20055KT
      TEMPO 2408/2410 3SM -RA BR OVC005
     FM241200 17013KT 4SM BR OVC004 WS020/20055KT
     FM241400 20014G24KT P6SM -SHRA SCT008 OVC025
     FM241700 20016G28KT P6SM SCT020 BKN050
     FM250000 23008KT P6SM OVC050=



000
FTUS41 KPHI 240700 AAA
TAFABE
TAF AMD
KABE 240756Z 2408/2506 13012G20KT 3SM -RA BR OVC009 WS020/20045KT
      TEMPO 2408/2411 2SM RA OVC005
     FM241500 19014G24KT P6SM -SHRA SCT008 OVC015
     FM241800 20016G26KT P6SM SCT020 BKN050
     FM250000 22007KT P6SM BKN250=



000
FTUS41 KPHI 240700 CCA
TAFPHL
TAF COR
KPHL 240708Z 2407/2512 12010G20KT 5SM -RA BR SCT008 OVC020
      WS020/17040KT
      TEMPO 2407/2409 2SM RA BR OVC006
     FM240900 14010KT 2SM RA BR BKN004 OVC010 WS020/17055KT
     FM241100 17014G24KT 4SM -RA BR OVC005 WS020/20055KT
     FM241500 21014G24KT P6SM -SHRA SCT008 OVC015
     FM241700 21016G28KT P6SM SCT020 BKN050
     FM250000 22009KT P6SM OVC050=



000
FTUS41 KPHI 240700 AAA
TAFPNE
TAF AMD
KPNE 240707Z 2407/2506 12010KT 5SM -RA BR SCT008 OVC020
      WS020/17040KT
      TEMPO 2407/2409 2SM RA BR OVC006
     FM240900 13010KT 2SM RA BR BKN004 OVC010 WS020/17055KT
     FM241100 16012G20KT 4SM -RA BR OVC005 WS020/20055KT
     FM241500 20014G24KT P6SM -SHRA SCT008 OVC015
     FM241800 20016G28KT P6SM SCT020 BKN050
     FM250000 22009KT P6SM OVC050=



000
FTUS41 KPHI 240700 AAA
TAFTTN
TAF AMD
KTTN 240706Z 2407/2506 14006KT 5SM -RA BR SCT008 OVC020
      WS020/17040KT
      TEMPO 2407/2409 2SM RA BR OVC007
     FM240900 14010KT 2SM RA BR BKN004 OVC010 WS020/17055KT
     FM241100 16012G20KT 4SM -RA BR OVC005 WS020/20055KT
     FM241500 20014G24KT P6SM -SHRA SCT008 OVC015
     FM241900 22016G26KT P6SM SCT020 BKN050
     FM250000 22009KT P6SM OVC050=



000
FTUS41 KPHI 240600 AAA
TAFPHL
TAF AMD
KPHL 240617Z 2406/2512 12006KT P6SM SCT025 OVC050
      TEMPO 2406/2407 2SM -RA BR OVC025
     FM240700 12006KT 5SM -RA BR SCT008 OVC020 WS020/17040KT
     FM240900 14010KT 2SM RA BR BKN004 OVC010 WS020/17055KT
     FM241100 17014G24KT 4SM -RA BR OVC005 WS020/20055KT
     FM241500 21014G24KT P6SM -SHRA SCT008 OVC015
     FM241700 21016G28KT P6SM SCT020 BKN050
     FM250000 22009KT P6SM OVC050=



000
FTUS41 KPHI 240600 AAA
TAFILG
TAF AMD
KILG 240616Z 2406/2506 09010KT 5SM -RA BR SCT015 OVC025
      WS020/17055KT
      TEMPO 2406/2408 2SM RA BR OVC005
     FM240800 17012G22KT 2SM -RA BR OVC005 WS020/20055KT
     FM241200 17013KT 4SM BR OVC004 WS020/20055KT
     FM241400 20014G24KT P6SM -SHRA SCT008 OVC025
     FM241700 20016G28KT P6SM SCT020 BKN050
     FM250000 23008KT P6SM OVC050=



000
FTUS41 KPHI 240600 CCB
TAFMIV
TAF COR
KMIV 240604Z 2406/2506 15010G20KT 5SM -RA BR SCT009 OVC015
      WS020/17055KT
      TEMPO 2406/2408 2SM -RA BR OVC009
     FM240800 17012G22KT 2SM -RA BR OVC010 WS020/20055KT
     FM241000 17013KT 4SM BR OVC005 WS020/20055KT
     FM241400 20014G24KT P6SM -SHRA SCT008 OVC025
     FM241700 20016G28KT P6SM SCT020 BKN050
     FM250000 23008KT P6SM OVC050=



000
FTUS41 KPHI 240600 CCA
TAFMIV
TAF COR
KMIV 240603Z 2406/2506 15010G20KT 5SM -RA BR SCT015 OVC025
      WS020/17055KT
      TEMPO 2406/2408 2SM -RA BR OVC015
     FM240800 17012G22KT 2SM -RA BR OVC010 WS020/20055KT
     FM241000 17013KT 4SM BR OVC005 WS020/20055KT
     FM241400 20014G24KT P6SM -SHRA SCT008 OVC025
     FM241700 20016G28KT P6SM SCT020 BKN050
     FM250000 23008KT P6SM OVC050=



000
FTUS41 KPHI 240500 CCA
TAFACY
TAF COR
KACY 240558Z 2406/2506 14010G20KT 5SM -RA BR SCT025 OVC035
      WS020/17055KT
      TEMPO 2406/2408 2SM RA BR OVC025
     FM240800 17012G22KT 2SM -RA BR OVC010 WS020/20055KT
     FM241000 17013KT 4SM BR OVC005 WS020/20055KT
     FM241400 20014G24KT P6SM -SHRA SCT008 OVC025
     FM241700 20016G28KT P6SM SCT020 BKN050
     FM250000 23008KT P6SM OVC050=



000
FTUS41 KPHI 240500 CCA
TAFILG
TAF COR
KILG 240557Z 2406/2506 09010KT 5SM -RA BR SCT015 OVC025
      WS020/17055KT
      TEMPO 2406/2408 2SM RA BR OVC015
     FM240800 17012G22KT 2SM -RA BR OVC005 WS020/20055KT
     FM241200 17013KT 4SM BR OVC004 WS020/20055KT
     FM241400 20014G24KT P6SM -SHRA SCT008 OVC025
     FM241700 20016G28KT P6SM SCT020 BKN050
     FM250000 23008KT P6SM OVC050=



000
FTUS41 KPHI 240500 CCA
TAFTTN
TAF COR
KTTN 240557Z 2406/2506 15007KT P6SM SCT025 OVC050
      TEMPO 2406/2407 5SM -RA BR BKN025
     FM240700 14006KT 5SM -RA BR SCT008 OVC020 WS020/17040KT
     FM240900 14010KT 2SM RA BR BKN004 OVC010 WS020/17055KT
     FM241100 16012G20KT 4SM -RA BR OVC005 WS020/20055KT
     FM241500 20014G24KT P6SM -SHRA SCT008 OVC015
     FM241900 22016G26KT P6SM SCT020 BKN050
     FM250000 22009KT P6SM OVC050=



000
FTUS41 KPHI 240500 CCA
TAFABE
TAF COR
KABE 240542Z 2406/2506 08006KT P6SM -RA SCT008 OVC015 WS020/17035KT
      TEMPO 2406/2408 2SM RA BR BKN005
     FM240800 13012G20KT 2SM -RA BR OVC005 WS020/20045KT
     FM241500 19014G24KT P6SM -SHRA SCT008 OVC015
     FM241800 20016G26KT P6SM SCT020 BKN050
     FM250000 22007KT P6SM BKN250=



000
FTUS41 KPHI 240500
TAFRDG
TAF
KRDG 240540Z 2406/2506 15006KT P6SM -RA SCT008 OVC015 WS020/17035KT
      TEMPO 2406/2408 2SM RA BR BKN005
     FM240800 17011KT 4SM -RA BR OVC005 WS020/20045KT
     FM241300 20012G22KT P6SM -SHRA SCT008 OVC015
     FM241700 20014G24KT P6SM SCT020 BKN050
     FM250000 23007KT P6SM BKN250=



000
FTUS41 KPHI 240500
TAFACY
TAF
KACY 240540Z 2406/2506 14010KT P6SM -RA SCT025 OVC035 WS020/17055KT
      TEMPO 2406/2408 5SM -RA BR OVC025
     FM240800 17012G22KT 2SM -RA BR OVC010 WS020/20055KT
     FM241000 17013KT 4SM BR OVC005 WS020/20055KT
     FM241400 20014G24KT P6SM -SHRA SCT008 OVC025
     FM241700 20016G28KT P6SM SCT020 BKN050
     FM250000 23008KT P6SM OVC050=



000
FTUS41 KPHI 240500
TAFTTN
TAF
KTTN 240540Z 2406/2506 15007KT P6SM SCT025 OVC050
     FM240700 14006KT 5SM -RA BR SCT008 OVC020 WS020/17040KT
     FM240900 14010KT 2SM RA BR BKN004 OVC010 WS020/17055KT
     FM241100 16012G20KT 4SM -RA BR OVC005 WS020/20055KT
     FM241500 20014G24KT P6SM -SHRA SCT008 OVC015
     FM241900 22016G26KT P6SM SCT020 BKN050
     FM250000 22009KT P6SM OVC050=



000
FTUS41 KPHI 240500
TAFPNE
TAF
KPNE 240540Z 2406/2506 12005KT P6SM SCT025 OVC050
      TEMPO 2406/2407 BKN025
     FM240700 12006KT 5SM -RA BR SCT008 OVC020 WS020/17040KT
     FM240900 13010KT 2SM RA BR BKN004 OVC010 WS020/17055KT
     FM241100 16012G20KT 4SM -RA BR OVC005 WS020/20055KT
     FM241500 20014G24KT P6SM -SHRA SCT008 OVC015
     FM241800 20016G28KT P6SM SCT020 BKN050
     FM250000 22009KT P6SM OVC050=



000
FTUS41 KPHI 240500
TAFPHL
TAF
KPHL 240540Z 2406/2512 14006KT P6SM SCT025 OVC050
     FM240700 12006KT 5SM -RA BR SCT008 OVC020 WS020/17040KT
     FM240900 14010KT 2SM RA BR BKN004 OVC010 WS020/17055KT
     FM241100 17014G24KT 4SM -RA BR OVC005 WS020/20055KT
     FM241500 21014G24KT P6SM -SHRA SCT008 OVC015
     FM241700 21016G28KT P6SM SCT020 BKN050
     FM250000 22009KT P6SM OVC050=



000
FTUS41 KPHI 240500
TAFABE
TAF
KABE 240540Z 2406/2506 08006KT P6SM -RA SCT008 OVC020 WS020/17035KT
      TEMPO 2406/2408 5SM RA BR BKN005
     FM240800 13012G20KT 2SM -RA BR OVC005 WS020/20045KT
     FM241500 19014G24KT P6SM -SHRA SCT008 OVC015
     FM241800 20016G26KT P6SM SCT020 BKN050
     FM250000 22007KT P6SM BKN250=



000
FTUS41 KPHI 240500
TAFILG
TAF
KILG 240540Z 2406/2506 09010KT P6SM -RA SCT015 OVC025 WS020/17055KT
      TEMPO 2406/2408 5SM -RA BR OVC015
     FM240800 17012G22KT 2SM -RA BR OVC005 WS020/20055KT
     FM241200 17013KT 4SM BR OVC004 WS020/20055KT
     FM241400 20014G24KT P6SM -SHRA SCT008 OVC025
     FM241700 20016G28KT P6SM SCT020 BKN050
     FM250000 23008KT P6SM OVC050=



000
FTUS41 KPHI 240500
TAFMIV
TAF
KMIV 240540Z 2406/2506 12008KT P6SM -RA SCT025 OVC035 WS020/17055KT
      TEMPO 2406/2408 5SM -RA BR OVC025
     FM240800 17012G22KT 2SM -RA BR OVC010 WS020/20055KT
     FM241000 17013KT 4SM BR OVC005 WS020/20055KT
     FM241400 20014G24KT P6SM -SHRA SCT008 OVC025
     FM241700 20016G28KT P6SM SCT020 BKN050
     FM250000 23008KT P6SM OVC050=



000
FTUS41 KPHI 240400 AAA
TAFPNE
TAF AMD
KPNE 240403Z 2404/2424 12003KT P6SM SCT025 OVC050
     FM240600 12006KT 5SM -RA BR SCT008 OVC020 WS020/17040KT
     FM240800 13010KT 2SM RA BR BKN004 OVC010 WS020/17055KT
     FM240900 16012G20KT 4SM -RA BR OVC005 WS020/20055KT
     FM241400 20014G24KT P6SM -SHRA SCT008 OVC015
     FM241700 20016G28KT P6SM SCT020 BKN050=



000
FTUS41 KPHI 240400 AAA
TAFPNE
TAF AMD
KPNE 240403Z 2404/2424 12003KT P6SM SCT025 OVC050
     FM240600 12006KT 5SM -RA BR SCT008 OVC020 WS020/17040KT
     FM240800 13010KT 2SM RA BR BKN004 OVC010 WS020/17055KT
     FM240900 16012G20KT 4SM -RA BR OVC005 WS020/20055KT
     FM241400 20014G24KT P6SM -SHRA SCT008 OVC015
     FM241700 20016G28KT P6SM SCT020 BKN050=



000
FTUS41 KPHI 240400 AAA
TAFTTN
TAF AMD
KTTN 240402Z 2404/2424 17004KT P6SM SCT025 OVC050
     FM240600 14006KT 5SM -RA BR SCT008 OVC020 WS020/17040KT
     FM240800 14010KT 2SM RA BR BKN004 OVC010 WS020/17055KT
     FM240900 16012G20KT 4SM -RA BR OVC005 WS020/20055KT
     FM241400 20014G24KT P6SM -SHRA SCT008 OVC015
     FM241700 22016G26KT P6SM SCT020 BKN050=



000
FTUS41 KPHI 240400 AAA
TAFTTN
TAF AMD
KTTN 240402Z 2404/2424 17004KT P6SM SCT025 OVC050
     FM240600 14006KT 5SM -RA BR SCT008 OVC020 WS020/17040KT
     FM240800 14010KT 2SM RA BR BKN004 OVC010 WS020/17055KT
     FM240900 16012G20KT 4SM -RA BR OVC005 WS020/20055KT
     FM241400 20014G24KT P6SM -SHRA SCT008 OVC015
     FM241700 22016G26KT P6SM SCT020 BKN050=



000
FTUS41 KPHI 240300 CCB
TAFILG
TAF COR
KILG 240320Z 2403/2424 13004KT P6SM SCT015 BKN025
      TEMPO 2403/2405 BKN015
     FM240500 13008KT 5SM -RA BR SCT008 OVC020 WS020/17040KT
     FM240600 13010G18KT 2SM RA BR BKN004 OVC010 WS020/17055KT
     FM240700 17012G22KT 4SM -RA BR OVC005 WS020/20055KT
     FM241400 20014G24KT P6SM -SHRA SCT008 OVC025
     FM241700 20016G28KT P6SM SCT020 BKN050=



000
FTUS41 KPHI 240300 AAA
TAFACY
TAF AMD
KACY 240320Z 2403/2424 16005KT P6SM SCT025 OVC050
     FM240500 14008KT 5SM -RA BR SCT008 OVC020 WS020/17045KT
     FM240700 14012G20KT 2SM RA BR BKN004 OVC010 WS020/17060KT
     FM240900 17014G24KT 4SM -RA BR OVC005 WS020/20060KT
     FM241400 20014G24KT P6SM -SHRA SCT008 OVC025
     FM241700 20016G28KT P6SM SCT020 BKN050=



000
FTUS41 KPHI 240300 CCA
TAFILG
TAF COR
KILG 240318Z 2403/2424 13004KT P6SM SCT025 OVC050
      TEMPO 2403/2405 BKN025
     FM240500 13008KT 5SM -RA BR SCT008 OVC020 WS020/17040KT
     FM240600 13010G18KT 2SM RA BR BKN004 OVC010 WS020/17055KT
     FM240700 17012G22KT 4SM -RA BR OVC005 WS020/20055KT
     FM241400 20014G24KT P6SM -SHRA SCT008 OVC025
     FM241700 20016G28KT P6SM SCT020 BKN050=



000
FTUS41 KPHI 240300 CCA
TAFILG
TAF COR
KILG 240318Z 2403/2424 13004KT P6SM SCT025 OVC050
      TEMPO 2403/2405 BKN025
     FM240500 13008KT 5SM -RA BR SCT008 OVC020 WS020/17040KT
     FM240600 13010G18KT 2SM RA BR BKN004 OVC010 WS020/17055KT
     FM240700 17012G22KT 4SM -RA BR OVC005 WS020/20055KT
     FM241400 20014G24KT P6SM -SHRA SCT008 OVC025
     FM241700 20016G28KT P6SM SCT020 BKN050=



000
FTUS41 KPHI 240300 AAA
TAFILG
TAF AMD
KILG 240316Z 2403/2424 13004KT P6SM SCT025 OVC050
     FM240500 13008KT 5SM -RA BR SCT008 OVC020 WS020/17040KT
     FM240600 13010G18KT 2SM RA BR BKN004 OVC010 WS020/17055KT
     FM240700 17012G22KT 4SM -RA BR OVC005 WS020/20055KT
     FM241400 20014G24KT P6SM -SHRA SCT008 OVC025
     FM241700 20016G28KT P6SM SCT020 BKN050=



000
FTUS41 KPHI 240300 AAA
TAFMIV
TAF AMD
KMIV 240316Z 2403/2424 15004KT P6SM SCT025 OVC050
     FM240500 13006KT 5SM -RA BR SCT008 OVC020 WS020/17045KT
     FM240700 13010G18KT 2SM RA BR BKN004 OVC010 WS020/17060KT
     FM240800 17012G22KT 4SM -RA BR OVC005 WS020/20060KT
     FM241400 20014G24KT P6SM -SHRA SCT008 OVC025
     FM241700 20016G28KT P6SM SCT020 BKN050=



000
FTUS41 KPHI 240300 AAA
TAFPHL
TAF AMD
KPHL 240315Z 2403/2506 14006KT P6SM SCT025 OVC050
     FM240500 12006KT 5SM -RA BR SCT008 OVC020 WS020/17040KT
     FM240700 14010KT 2SM RA BR BKN004 OVC010 WS020/17055KT
     FM240800 17014G24KT 4SM -RA BR OVC005 WS020/20055KT
     FM241400 21014G24KT P6SM -SHRA SCT008 OVC015
     FM241700 21016G28KT P6SM SCT020 BKN050=



000
FTUS41 KPHI 232300 RRA
TAFRDG
TAF
KRDG 232340Z 2400/2424 15004KT P6SM SCT050 BKN150
     FM240200 VRB02KT P6SM SCT025 OVC050
     FM240400 12004KT 5SM -RA BR SCT008 OVC020 WS020/17035KT
     FM240600 14006KT 2SM RA BR BKN004 OVC010 WS020/17045KT
     FM240800 17010G18KT 4SM -RA BR OVC005 WS020/20045KT
     FM241400 20012G22KT P6SM -SHRA SCT008 OVC015
     FM241700 20014G24KT P6SM SCT020 BKN050=



000
FTUS41 KPHI 232300 RRA
TAFABE
TAF
KABE 232340Z 2400/2424 15004KT P6SM SCT050 BKN150
     FM240300 15004KT P6SM SCT025 OVC050
     FM240500 10006KT 5SM -RA BR SCT008 OVC020 WS020/17035KT
     FM240700 10010KT 2SM RA BR BKN004 OVC010 WS020/17045KT
     FM240900 13012G20KT 4SM -RA BR OVC005 WS020/20045KT
     FM241500 19014G24KT P6SM -SHRA SCT008 OVC015
     FM241700 20016G26KT P6SM SCT020 BKN050=



000
FTUS41 KPHI 232300 RRA
TAFPHL
TAF
KPHL 232340Z 2400/2506 16003KT P6SM FEW080 BKN200
     FM240100 14006KT P6SM SCT025 OVC050
     FM240300 12006KT 5SM -RA BR SCT008 OVC020 WS020/17040KT
     FM240600 14010KT 2SM RA BR BKN004 OVC010 WS020/17055KT
     FM240800 17014G24KT 4SM -RA BR OVC005 WS020/20055KT
     FM241400 21014G24KT P6SM -SHRA SCT008 OVC015
     FM241700 21016G28KT P6SM SCT020 BKN050=



000
FTUS41 KPHI 232300 RRA
TAFILG
TAF
KILG 232340Z 2400/2424 13004KT P6SM BKN200
     FM240100 13004KT P6SM SCT025 OVC050
     FM240300 13008KT 5SM -RA BR SCT008 OVC020 WS020/17040KT
     FM240500 13010G18KT 2SM RA BR BKN004 OVC010 WS020/17055KT
     FM240700 17012G22KT 4SM -RA BR OVC005 WS020/20055KT
     FM241400 20014G24KT P6SM -SHRA SCT008 OVC025
     FM241700 20016G28KT P6SM SCT020 BKN050=



000
FTUS41 KPHI 232300 RRA
TAFACY
TAF
KACY 232340Z 2400/2424 16005KT P6SM SCT025 OVC050
     FM240300 14008KT 5SM -RA BR SCT008 OVC020 WS020/17045KT
     FM240500 14012G20KT 2SM RA BR BKN004 OVC010 WS020/17060KT
     FM240700 17014G24KT 4SM -RA BR OVC005 WS020/20060KT
     FM241400 20014G24KT P6SM -SHRA SCT008 OVC025
     FM241700 20016G28KT P6SM SCT020 BKN050=



000
FTUS41 KPHI 232300 RRA
TAFPNE
TAF
KPNE 232340Z 2400/2424 16003KT P6SM FEW080 BKN200
     FM240100 14006KT P6SM SCT025 OVC050
     FM240400 12006KT 5SM -RA BR SCT008 OVC020 WS020/17040KT
     FM240600 13010KT 2SM RA BR BKN004 OVC010 WS020/17055KT
     FM240800 16012G20KT 4SM -RA BR OVC005 WS020/20055KT
     FM241400 20014G24KT P6SM -SHRA SCT008 OVC015
     FM241700 20016G28KT P6SM SCT020 BKN050=



000
FTUS41 KPHI 232300 RRA
TAFMIV
TAF
KMIV 232340Z 2400/2424 15004KT P6SM SCT025 OVC050
     FM240300 13006KT 5SM -RA BR SCT008 OVC020 WS020/17045KT
     FM240500 13010G18KT 2SM RA BR BKN004 OVC010 WS020/17060KT
     FM240700 17012G22KT 4SM -RA BR OVC005 WS020/20060KT
     FM241400 20014G24KT P6SM -SHRA SCT008 OVC025
     FM241700 20016G28KT P6SM SCT020 BKN050=



000
FTUS41 KPHI 232300 RRA
TAFTTN
TAF
KTTN 232340Z 2400/2424 17004KT P6SM SCT050 BKN100
     FM240100 14004KT P6SM SCT025 OVC050
     FM240400 14006KT 5SM -RA BR SCT008 OVC020 WS020/17040KT
     FM240600 14010KT 2SM RA BR BKN004 OVC010 WS020/17055KT
     FM240800 16012G20KT 4SM -RA BR OVC005 WS020/20055KT
     FM241400 20014G24KT P6SM -SHRA SCT008 OVC015
     FM241700 22016G26KT P6SM SCT020 BKN050=



000
FTUS41 KPHI 232100 AAA
TAFPHL
TAF AMD
KPHL 232100Z 2321/2424 17006KT P6SM FEW080 BKN200
     FM240100 14006KT P6SM SCT025 OVC050
     FM240400 12006KT 5SM -RA BR SCT008 OVC020 WS020/17040KT
     FM240600 14010KT 2SM RA BR BKN004 OVC010 WS020/17055KT
     FM240800 17014G24KT 4SM -RA BR OVC005 WS020/20055KT
     FM241400 21014G24KT P6SM -SHRA SCT008 OVC015
     FM241700 21016G28KT P6SM SCT020 BKN050=



000
FTUS41 KPHI 231700
TAFTTN
TAF
KTTN 231731Z 2318/2418 22006KT P6SM BKN100
     FM232200 17004KT P6SM SCT050 BKN100
     FM240100 14004KT P6SM SCT025 OVC050
     FM240400 14006KT 5SM -RA BR SCT008 OVC020 WS020/17040KT
     FM240600 14010KT 2SM RA BR BKN004 OVC010 WS020/17055KT
     FM240800 16012G20KT 4SM -RA BR OVC005 WS020/20055KT
     FM241400 20014G24KT P6SM -SHRA SCT008 OVC015
     FM241700 22016G26KT P6SM SCT020 BKN050=



000
FTUS41 KPHI 231700
TAFACY
TAF
KACY 231731Z 2318/2418 21008KT P6SM BKN200
     FM232100 18006KT P6SM SCT050 BKN100
     FM240000 VRB03KT P6SM SCT025 OVC050
     FM240300 14008KT 5SM -RA BR SCT008 OVC020 WS020/17045KT
     FM240500 14012G20KT 2SM RA BR BKN004 OVC010 WS020/17060KT
     FM240700 17014G24KT 4SM -RA BR OVC005 WS020/20060KT
     FM241400 20014G24KT P6SM -SHRA SCT008 OVC025
     FM241700 20016G28KT P6SM SCT020 BKN050=



000
FTUS41 KPHI 231700
TAFMIV
TAF
KMIV 231731Z 2318/2418 21006KT P6SM BKN200
     FM232100 17006KT P6SM SCT050 BKN100
     FM240000 VRB03KT P6SM SCT025 OVC050
     FM240300 13006KT 5SM -RA BR SCT008 OVC020 WS020/17045KT
     FM240500 13010G18KT 2SM RA BR BKN004 OVC010 WS020/17060KT
     FM240700 17012G22KT 4SM -RA BR OVC005 WS020/20060KT
     FM241400 20014G24KT P6SM -SHRA SCT008 OVC025
     FM241700 20016G28KT P6SM SCT020 BKN050=



000
FTUS41 KPHI 231700
TAFILG
TAF
KILG 231731Z 2318/2418 19006KT P6SM BKN200
     FM232100 16006KT P6SM SCT050 BKN100
     FM240000 13006KT P6SM SCT025 OVC050
     FM240300 13008KT 5SM -RA BR SCT008 OVC020 WS020/17040KT
     FM240500 13010G18KT 2SM RA BR BKN004 OVC010 WS020/17055KT
     FM240700 17012G22KT 4SM -RA BR OVC005 WS020/20055KT
     FM241400 20014G24KT P6SM -SHRA SCT008 OVC025
     FM241700 20016G28KT P6SM SCT020 BKN050=



000
FTUS41 KPHI 231700
TAFRDG
TAF
KRDG 231731Z 2318/2418 00000KT P6SM SCT100 BKN250
     FM232200 17004KT P6SM SCT050 BKN100
     FM240100 VRB02KT P6SM SCT025 OVC050
     FM240400 12004KT 5SM -RA BR SCT008 OVC020 WS020/17035KT
     FM240600 14006KT 2SM RA BR BKN004 OVC010 WS020/17045KT
     FM240800 17010G18KT 4SM -RA BR OVC005 WS020/20045KT
     FM241400 20012G22KT P6SM -SHRA SCT008 OVC015
     FM241700 20014G24KT P6SM SCT020 BKN050=



000
FTUS41 KPHI 231700
TAFPHL
TAF
KPHL 231731Z 2318/2424 20008KT P6SM BKN200
     FM232100 17006KT P6SM SCT050 BKN100
     FM240000 14006KT P6SM SCT025 OVC050
     FM240400 12006KT 5SM -RA BR SCT008 OVC020 WS020/17040KT
     FM240600 14010KT 2SM RA BR BKN004 OVC010 WS020/17055KT
     FM240800 17014G24KT 4SM -RA BR OVC005 WS020/20055KT
     FM241400 21014G24KT P6SM -SHRA SCT008 OVC015
     FM241700 21016G28KT P6SM SCT020 BKN050=



000
FTUS41 KPHI 231700
TAFPNE
TAF
KPNE 231731Z 2318/2418 22005KT P6SM BKN200
     FM232100 17006KT P6SM SCT050 BKN100
     FM240000 14006KT P6SM SCT025 OVC050
     FM240400 12006KT 5SM -RA BR SCT008 OVC020 WS020/17040KT
     FM240600 13010KT 2SM RA BR BKN004 OVC010 WS020/17055KT
     FM240800 16012G20KT 4SM -RA BR OVC005 WS020/20055KT
     FM241400 20014G24KT P6SM -SHRA SCT008 OVC015
     FM241700 20016G28KT P6SM SCT020 BKN050=



000
FTUS41 KPHI 231700
TAFABE
TAF
KABE 231731Z 2318/2418 21005KT P6SM SCT100 BKN250
     FM232300 VRB03KT P6SM SCT050 BKN080
     FM240500 10006KT 5SM -RA BR SCT008 OVC020 WS020/17035KT
     FM240700 10010KT 2SM RA BR BKN004 OVC010 WS020/17045KT
     FM240900 13012G20KT 4SM -RA BR OVC005 WS020/20045KT
     FM241500 19014G24KT P6SM -SHRA SCT008 OVC015
     FM241700 20016G26KT P6SM SCT020 BKN050=



000
FTUS41 KPHI 231400 AAA
TAFPHL
TAF AMD
KPHL 231439Z 2315/2418 21008KT P6SM SCT100 BKN200
     FM232100 17008KT P6SM SCT050 BKN100
     FM240000 16006KT P6SM SCT025 OVC050
     FM240400 15006KT 5SM -RA BR OVC020 WS020/18040KT
     FM240600 12010KT 2SM RA BR BKN005 OVC015 WS020/17050KT
     FM240800 16014G24KT 4SM -RA BR OVC005 WS020/19050KT
     FM241400 20014G24KT P6SM -SHRA OVC010
     FM241700 21016G28KT P6SM SCT020 BKN050=



000
FTUS41 KPHI 231100
TAFPNE
TAF
KPNE 231135Z 2312/2412 22005KT P6SM SCT100
     FM240100 16005KT P6SM OVC050
     FM240300 12006KT 5SM -RA BR OVC020
     FM240600 12010KT 4SM -RA BR OVC010
     FM240800 15015G25KT 4SM -RA BR OVC007 WS020/16050KT=



000
FTUS41 KPHI 231100
TAFPHL
TAF
KPHL 231135Z 2312/2418 20006KT P6SM SCT100
     FM240000 16006KT P6SM OVC050
     FM240300 15006KT 5SM -RA BR OVC020
     FM240600 12010KT 4SM -RA BR OVC010
     FM240800 15015G26KT 4SM -RA BR OVC007 WS020/16050KT=



000
FTUS41 KPHI 231100
TAFILG
TAF
KILG 231135Z 2312/2412 19006KT P6SM SCT100
     FM240000 16006KT P6SM OVC050
     FM240200 15006KT 5SM -RA BR OVC030
     FM240500 12010KT 4SM -RA BR OVC010
     FM240700 15015G26KT 4SM -RA BR OVC007 WS020/16050KT=



000
FTUS41 KPHI 231100
TAFACY
TAF
KACY 231135Z 2312/2412 21008KT P6SM SCT100
     FM232100 16005KT P6SM SCT040
     FM240200 15007KT 4SM -RA BR OVC030
     FM240500 14010KT 4SM -RA BR OVC010
     FM240700 16015G26KT 4SM -RA BR OVC007 WS020/16050KT=



000
FTUS41 KPHI 231100
TAFRDG
TAF
KRDG 231135Z 2312/2412 00000KT P6SM BKN080
     FM231400 17003KT P6SM SCT100
     FM240100 13004KT P6SM OVC050
     FM240300 14005KT 5SM -RA BR OVC015
     FM240600 11006KT 4SM -RA BR OVC007
     FM240800 13010KT 3SM -RA BR OVC003 WS020/16045KT=



000
FTUS41 KPHI 231100
TAFTTN
TAF
KTTN 231135Z 2312/2412 23005KT P6SM SCT100
     FM240100 16005KT P6SM OVC050
     FM240300 15006KT 5SM -RA BR OVC020
     FM240600 15010KT 4SM -RA BR OVC015
     FM240800 15015G25KT 4SM -RA BR OVC007 WS020/16050KT=



000
FTUS41 KPHI 231100
TAFMIV
TAF
KMIV 231135Z 2312/2412 21006KT P6SM SCT100
     FM232100 16005KT P6SM SCT040
     FM240200 12005KT 4SM -RA BR OVC030
     FM240500 14010KT 4SM -RA BR OVC010
     FM240700 16015G26KT 4SM -RA BR OVC007 WS020/16050KT=



000
FTUS41 KPHI 231100
TAFABE
TAF
KABE 231135Z 2312/2412 00000KT P6SM OVC100
     FM231400 21005KT P6SM SCT100
     FM240200 11004KT P6SM OVC025
     FM240300 14005KT 5SM -RA BR OVC015
     FM240600 09007KT 4SM -RA BR OVC007
     FM240800 12012KT 4SM -RA BR OVC003 WS020/16045KT=



000
FTUS41 KPHI 230800 AAA
TAFPHL
TAF AMD
KPHL 230859Z 2309/2412 19010KT P6SM SCT120 OVC250
     FM231200 20006KT P6SM SCT100
     FM240000 16006KT P6SM OVC050
     FM240300 15006KT 5SM -RA BR OVC020
     FM240600 14007KT 5SM -RA BR OVC007 WS020/16045KT=



000
FTUS41 KPHI 230500
TAFILG
TAF
KILG 230540Z 2306/2406 20006KT P6SM OVC100
     FM231200 19008KT P6SM SCT100
     FM240000 16006KT P6SM OVC050
     FM240300 15006KT 5SM -RA BR OVC020=



000
FTUS41 KPHI 230500
TAFPHL
TAF
KPHL 230540Z 2306/2412 23010KT P6SM OVC110
     FM231200 20006KT P6SM SCT100
     FM240000 16006KT P6SM OVC050
     FM240300 15006KT 5SM -RA BR OVC020
     FM240600 14007KT 5SM -RA BR OVC007 WS020/16045KT=



000
FTUS41 KPHI 230500
TAFRDG
TAF
KRDG 230540Z 2306/2406 17003KT P6SM SCT110
     FM231400 17003KT P6SM SCT100
     FM232300 13003KT P6SM OVC050
     FM240100 13004KT P6SM OVC025
     FM240300 14005KT 5SM -RA BR OVC015=



000
FTUS41 KPHI 230500
TAFPNE
TAF
KPNE 230540Z 2306/2406 23006KT P6SM OVC110
     FM231200 21008KT P6SM SCT100
     FM240100 16005KT P6SM OVC050
     FM240300 15006KT 5SM -RA BR OVC020=



000
FTUS41 KPHI 230500
TAFMIV
TAF
KMIV 230540Z 2306/2406 23004KT P6SM OVC110
     FM231200 21008KT P6SM SCT100
     FM232100 16005KT P6SM SCT040
     FM240200 12005KT 4SM -RA BR OVC020
     FM240400 12008G15KT 4SM -RA BR OVC007=



000
FTUS41 KPHI 230500
TAFACY
TAF
KACY 230540Z 2306/2406 22008KT P6SM OVC110
     FM231200 21008KT P6SM SCT100
     FM232100 16005KT P6SM SCT040
     FM240200 15007KT 4SM -RA BR OVC015
     FM240400 15010G20KT 5SM -RA BR OVC007=



000
FTUS41 KPHI 230500
TAFABE
TAF
KABE 230540Z 2306/2406 VRB03KT P6SM SCT110
     FM231400 22005KT P6SM SCT100
     FM232300 13003KT P6SM OVC050
     FM240100 13004KT P6SM OVC025
     FM240300 14005KT 5SM -RA BR OVC015=



000
FTUS41 KPHI 230500
TAFTTN
TAF
KTTN 230540Z 2306/2406 23006KT P6SM OVC110
     FM231200 22007KT P6SM SCT100
     FM240100 16005KT P6SM OVC050
     FM240300 15006KT 5SM -RA BR OVC020=



000
FTUS41 KPHI 222300
TAFABE
TAF
KABE 222339Z 2300/2324 23005KT P6SM BKN040
     FM230800 23003KT P6SM BKN100
     FM231400 22005KT P6SM SCT100=



000
FTUS41 KPHI 222300
TAFACY
TAF
KACY 222339Z 2300/2324 22006KT P6SM BKN080
     FM231200 21008KT P6SM SCT100
     FM232100 16005KT P6SM SCT040=



000
FTUS41 KPHI 222300
TAFRDG
TAF
KRDG 222339Z 2300/2324 19003KT P6SM BKN040
     FM230800 VRB02KT P6SM BKN100
     FM231400 17003KT P6SM SCT100=



000
FTUS41 KPHI 222300
TAFMIV
TAF
KMIV 222339Z 2300/2324 21004KT P6SM BKN080
     FM231200 21008KT P6SM SCT100
     FM232100 16005KT P6SM SCT040=



000
FTUS41 KPHI 222300
TAFPNE
TAF
KPNE 222339Z 2300/2324 23006KT P6SM BKN060
     FM231200 21008KT P6SM SCT100=



000
FTUS41 KPHI 222300
TAFPHL
TAF
KPHL 222339Z 2300/2406 21008KT P6SM BKN080
     FM231200 20006KT P6SM SCT100
     FM240000 16006KT P6SM OVC050
     FM240300 13006KT 6SM -RA SCT020 OVC035=



000
FTUS41 KPHI 222300
TAFILG
TAF
KILG 222339Z 2300/2324 23005KT P6SM BKN080
     FM231200 19008KT P6SM SCT100=



000
FTUS41 KPHI 222300
TAFTTN
TAF
KTTN 222339Z 2300/2324 23006KT P6SM BKN060
     FM231200 22007KT P6SM SCT100=



    US Dept of Commerce
    National Oceanic and Atmospheric Administration
    National Weather Service
    1325 East West Highway
    Silver Spring, MD 20910
    Page Author: NWS Internet Services Team
Disclaimer
Information Quality
Credits
Glossary
Privacy Policy
Freedom of Information Act (FOIA)
About Us
Career Opportunities